Terminal Aerodrome Forecast
Issued by NWS

Current Version | Previous Version | Text Only | Print | Product List | Glossary On
Versions: 1 2 3 4 5 6 7 8 9 10 11 12 13 14 15 16 17 18 19 20 21 22 23 24 25 26 27 28 29 30 31 32 33 34 35 36 37
000
FTUS45 KGJT 282320
TAFDRO
TAF
KDRO 282320Z 2900/2924 32013KT P6SM FEW120
     FM290200 29008KT P6SM FEW090
     FM290600 01004KT P6SM SKC
     FM291700 05003KT P6SM SKC
     FM292000 26009KT P6SM FEW140=

USA.gov is the U.S. government's official web portal to all federal, state and local government web resources and services.